createdAt,value
2018-06-16T00:01:03.717Z,15.80
2018-06-16T00:03:31.921Z,16.00
2018-06-16T00:06:00.115Z,16.10
2018-06-16T00:08:28.262Z,15.86
2018-06-16T00:10:56.509Z,15.68
2018-06-16T00:13:24.727Z,15.64
2018-06-16T00:15:52.990Z,15.64
2018-06-16T00:18:21.179Z,15.58
2018-06-16T00:20:49.362Z,15.62
2018-06-16T00:23:17.568Z,15.65
2018-06-16T00:25:45.668Z,15.58
2018-06-16T00:28:13.765Z,15.60
2018-06-16T00:30:41.850Z,15.46
2018-06-16T00:33:09.976Z,15.64
2018-06-16T00:35:38.153Z,15.75
2018-06-16T00:38:06.446Z,15.57
2018-06-16T00:40:34.741Z,15.35
2018-06-16T00:43:02.903Z,15.34
2018-06-16T00:45:31.037Z,15.45
2018-06-16T00:47:59.131Z,15.27
2018-06-16T00:50:27.227Z,15.19
2018-06-16T00:52:55.545Z,15.42
2018-06-16T00:55:23.551Z,15.47
2018-06-16T00:57:51.724Z,15.27
2018-06-16T01:00:20.717Z,15.13
2018-06-16T01:02:49.110Z,15.01
2018-06-16T01:05:17.206Z,14.96
2018-06-16T01:07:45.278Z,14.95
2018-06-16T01:10:13.624Z,14.95
2018-06-16T01:12:41.679Z,14.86
2018-06-16T01:15:09.788Z,14.83
2018-06-16T01:17:37.886Z,14.79
2018-06-16T01:20:06.009Z,14.74
2018-06-16T01:22:34.094Z,14.69
2018-06-16T01:25:02.188Z,14.67
2018-06-16T01:27:30.651Z,14.66
2018-06-16T01:29:58.921Z,14.65
2018-06-16T01:32:27.185Z,14.81
2018-06-16T01:34:55.379Z,14.86
2018-06-16T01:37:23.455Z,14.73
2018-06-16T01:39:51.582Z,14.67
2018-06-16T01:42:19.638Z,14.67
2018-06-16T01:44:47.711Z,14.69
2018-06-16T01:47:15.771Z,14.78
2018-06-16T01:49:43.867Z,14.67
2018-06-16T01:52:11.931Z,14.64
2018-06-16T01:54:40.098Z,14.58
2018-06-16T01:57:08.199Z,14.76
2018-06-16T01:59:36.289Z,14.65
2018-06-16T02:02:04.439Z,14.54
2018-06-16T02:04:32.599Z,14.45
2018-06-16T02:07:00.711Z,14.48
2018-06-16T02:09:28.811Z,14.94
2018-06-16T02:11:56.887Z,15.11
2018-06-16T02:14:25.006Z,15.31
2018-06-16T02:16:53.081Z,15.23
2018-06-16T02:19:21.155Z,15.02
2018-06-16T02:21:49.269Z,15.33
2018-06-16T02:24:17.341Z,15.63
2018-06-16T02:26:45.428Z,15.73
2018-06-16T02:29:13.520Z,15.62
2018-06-16T02:31:41.655Z,15.52
2018-06-16T02:34:09.763Z,15.33
2018-06-16T02:36:37.849Z,15.60
2018-06-16T02:39:08.107Z,15.58
2018-06-16T02:41:36.368Z,15.51
2018-06-16T02:44:04.467Z,15.35
2018-06-16T02:46:32.547Z,15.58
2018-06-16T02:49:00.685Z,15.79
2018-06-16T02:51:28.759Z,16.01
2018-06-16T02:53:56.860Z,16.16
2018-06-16T02:56:24.975Z,16.22
2018-06-16T02:58:53.154Z,16.21
2018-06-16T03:01:21.249Z,16.30
2018-06-16T03:03:49.333Z,16.34
2018-06-16T03:06:17.414Z,16.37
2018-06-16T03:08:45.545Z,16.46
2018-06-16T03:11:13.614Z,16.43
2018-06-16T03:13:41.687Z,16.50
2018-06-16T03:16:09.819Z,16.44
2018-06-16T03:18:37.944Z,16.52
2018-06-16T03:21:06.019Z,16.60
2018-06-16T03:23:34.138Z,16.58
2018-06-16T03:26:07.747Z,16.67
2018-06-16T03:31:33.191Z,16.78
2018-06-16T03:34:01.637Z,16.80
2018-06-16T03:36:29.719Z,16.89
2018-06-16T03:38:57.857Z,16.89
2018-06-16T03:41:26.026Z,16.88
2018-06-16T03:43:54.275Z,16.85
2018-06-16T03:46:22.339Z,16.91
2018-06-16T03:48:50.398Z,17.03
2018-06-16T03:51:18.487Z,17.08
2018-06-16T03:53:46.561Z,17.12
2018-06-16T03:56:14.723Z,17.08
2018-06-16T03:58:42.954Z,17.10
2018-06-16T04:01:11.064Z,17.07
2018-06-16T04:03:39.230Z,17.19
2018-06-16T04:06:07.656Z,17.20
2018-06-16T04:08:35.754Z,17.19
2018-06-16T04:11:03.864Z,17.26
2018-06-16T04:13:32.114Z,17.37
2018-06-16T04:16:00.339Z,17.44
2018-06-16T04:18:28.442Z,17.54
2018-06-16T04:20:56.543Z,17.58
2018-06-16T04:23:24.635Z,17.63
2018-06-16T04:25:52.730Z,17.70
2018-06-16T04:28:20.923Z,17.72
2018-06-16T04:30:49.001Z,17.77
2018-06-16T04:33:17.079Z,17.70
2018-06-16T04:35:45.168Z,17.75
2018-06-16T04:38:13.282Z,17.81
2018-06-16T04:40:41.346Z,17.70
2018-06-16T04:43:09.498Z,17.84
2018-06-16T04:45:37.662Z,17.91
2018-06-16T04:48:05.675Z,17.98
2018-06-16T04:50:33.774Z,18.13
2018-06-16T04:53:01.851Z,18.25
2018-06-16T04:55:29.943Z,18.29
2018-06-16T04:57:58.041Z,18.33
2018-06-16T05:00:26.217Z,18.34
2018-06-16T05:02:54.287Z,18.40
2018-06-16T05:05:22.382Z,18.30
2018-06-16T05:07:50.491Z,18.36
2018-06-16T05:10:18.599Z,18.47
2018-06-16T05:12:46.672Z,18.56
2018-06-16T05:15:14.754Z,18.58
2018-06-16T05:17:42.824Z,18.57
2018-06-16T05:20:10.919Z,18.53
2018-06-16T05:22:38.996Z,18.64
2018-06-16T05:25:07.064Z,18.76
2018-06-16T05:27:35.231Z,18.83
2018-06-16T05:30:03.324Z,18.88
2018-06-16T05:32:31.403Z,18.85
2018-06-16T05:34:59.510Z,18.98
2018-06-16T05:37:27.609Z,19.09
2018-06-16T05:39:55.686Z,19.18
2018-06-16T05:42:23.780Z,19.21
2018-06-16T05:44:51.982Z,19.29
2018-06-16T05:47:20.310Z,19.29
2018-06-16T05:49:48.391Z,19.31
2018-06-16T05:52:16.483Z,19.41
2018-06-16T05:54:44.599Z,19.32
2018-06-16T05:57:12.886Z,19.17
2018-06-16T05:59:41.076Z,19.47
2018-06-16T06:02:09.200Z,19.66
2018-06-16T06:04:37.434Z,19.78
2018-06-16T06:07:05.603Z,19.88
2018-06-16T06:09:33.792Z,19.95
2018-06-16T06:12:01.868Z,20.06
2018-06-16T06:14:29.928Z,19.97
2018-06-16T06:16:58.019Z,20.14
2018-06-16T06:19:26.098Z,20.31
2018-06-16T06:21:54.184Z,20.37
2018-06-16T06:24:22.307Z,20.49
2018-06-16T06:26:50.392Z,20.58
2018-06-16T06:29:18.456Z,20.64
2018-06-16T06:31:46.540Z,20.74
2018-06-16T06:34:14.633Z,20.79
2018-06-16T06:36:42.811Z,20.88
2018-06-16T06:39:10.987Z,21.03
2018-06-16T06:41:39.600Z,21.11
2018-06-16T06:44:07.659Z,21.26
2018-06-16T06:46:35.730Z,21.20
2018-06-16T06:49:03.912Z,21.27
2018-06-16T06:51:32.070Z,21.31
2018-06-16T06:54:00.155Z,21.38
2018-06-16T06:56:28.282Z,21.38
2018-06-16T06:58:56.384Z,21.46
2018-06-16T07:01:24.568Z,21.22
2018-06-16T07:03:52.670Z,21.37
2018-06-16T07:06:20.764Z,21.38
2018-06-16T07:08:48.862Z,21.58
2018-06-16T07:11:17.146Z,21.83
2018-06-16T07:13:45.367Z,21.80
2018-06-16T07:16:13.557Z,21.82
2018-06-16T07:18:41.660Z,21.97
2018-06-16T07:21:09.998Z,22.03
2018-06-16T07:23:38.353Z,21.83
2018-06-16T07:26:06.797Z,21.65
2018-06-16T07:28:35.129Z,21.85
2018-06-16T07:31:03.318Z,21.99
2018-06-16T07:33:31.440Z,22.24
2018-06-16T07:36:00.224Z,22.12
2018-06-16T07:38:28.573Z,22.40
2018-06-16T07:40:56.927Z,22.46
2018-06-16T07:43:25.001Z,22.59
2018-06-16T07:45:53.078Z,22.64
2018-06-16T07:48:21.179Z,22.50
2018-06-16T07:50:49.228Z,22.72
2018-06-16T07:53:17.317Z,22.84
2018-06-16T07:55:45.450Z,22.58
2018-06-16T07:58:13.623Z,22.63
2018-06-16T08:00:41.748Z,22.90
2018-06-16T08:03:09.998Z,23.09
2018-06-16T08:05:38.087Z,23.25
2018-06-16T08:08:06.197Z,23.21
2018-06-16T08:10:34.315Z,23.20
2018-06-16T08:13:02.420Z,23.14
2018-06-16T08:15:30.482Z,23.31
2018-06-16T08:17:58.630Z,23.22
2018-06-16T08:20:26.683Z,23.20
2018-06-16T08:22:54.747Z,23.18
2018-06-16T08:25:22.847Z,22.99
2018-06-16T08:27:50.940Z,23.18
2018-06-16T08:30:19.043Z,23.28
2018-06-16T08:32:47.119Z,22.77
2018-06-16T08:35:15.241Z,23.17
2018-06-16T08:37:43.280Z,23.18
2018-06-16T08:40:11.375Z,23.59
2018-06-16T08:42:39.662Z,23.58
2018-06-16T08:45:07.851Z,23.81
2018-06-16T08:47:35.916Z,23.69
2018-06-16T08:50:03.992Z,23.62
2018-06-16T08:52:32.137Z,23.23
2018-06-16T08:55:00.281Z,23.17
2018-06-16T08:57:28.394Z,23.25
2018-06-16T08:59:56.492Z,23.35
2018-06-16T09:02:24.559Z,23.74
2018-06-16T09:04:52.641Z,24.05
2018-06-16T09:07:20.901Z,24.39
2018-06-16T09:09:48.974Z,24.48
2018-06-16T09:12:17.059Z,24.73
2018-06-16T09:14:45.133Z,24.72
2018-06-16T09:17:13.268Z,24.79
2018-06-16T09:19:41.330Z,24.88
2018-06-16T09:22:09.402Z,24.58
2018-06-16T09:24:37.476Z,24.71
2018-06-16T09:27:05.691Z,24.55
2018-06-16T09:29:33.780Z,24.48
2018-06-16T09:32:01.876Z,24.66
2018-06-16T09:34:29.999Z,24.66
2018-06-16T09:36:58.087Z,24.93
2018-06-16T09:39:26.207Z,25.14
2018-06-16T09:41:54.281Z,25.06
2018-06-16T09:44:22.364Z,25.24
2018-06-16T09:46:50.458Z,25.23
2018-06-16T09:49:18.632Z,25.46
2018-06-16T09:51:46.704Z,25.19
2018-06-16T09:54:14.775Z,24.90
2018-06-16T09:56:42.844Z,24.88
2018-06-16T09:59:10.919Z,24.87
2018-06-16T10:01:39.053Z,25.36
2018-06-16T10:04:07.148Z,25.57
2018-06-16T10:06:35.224Z,25.89
2018-06-16T10:09:04.120Z,26.03
2018-06-16T10:11:32.193Z,25.87
2018-06-16T10:14:00.268Z,25.82
2018-06-16T10:16:28.556Z,25.41
2018-06-16T10:18:56.644Z,25.36
2018-06-16T10:21:24.848Z,25.26
2018-06-16T10:23:52.952Z,25.61
2018-06-16T10:26:21.153Z,25.57
2018-06-16T10:28:49.440Z,25.82
2018-06-16T10:31:17.508Z,26.11
2018-06-16T10:33:45.804Z,26.14
2018-06-16T10:36:13.889Z,26.56
2018-06-16T10:38:41.981Z,26.21
2018-06-16T10:41:10.092Z,26.45
2018-06-16T10:43:38.299Z,26.45
2018-06-16T10:46:07.871Z,26.18
2018-06-16T10:48:36.037Z,25.69
2018-06-16T10:51:04.108Z,25.80
2018-06-16T10:53:32.195Z,26.36
2018-06-16T10:56:00.290Z,26.69
2018-06-16T10:58:28.399Z,26.43
2018-06-16T11:00:56.508Z,26.82
2018-06-16T11:03:24.661Z,27.20
2018-06-16T11:05:59.142Z,26.85
2018-06-16T11:08:27.322Z,26.82
2018-06-16T11:10:55.450Z,26.77
2018-06-16T11:13:23.557Z,26.53
2018-06-16T11:15:51.672Z,26.52
2018-06-16T11:18:19.748Z,26.33
2018-06-16T11:20:47.824Z,26.22
2018-06-16T11:23:15.930Z,25.95
2018-06-16T11:25:44.028Z,26.39
2018-06-16T11:28:12.237Z,26.40
2018-06-16T11:30:40.331Z,26.33
2018-06-16T11:33:08.631Z,26.53
2018-06-16T11:35:37.046Z,26.89
2018-06-16T11:38:05.222Z,27.00
2018-06-16T11:40:33.314Z,27.02
2018-06-16T11:43:01.398Z,26.72
2018-06-16T11:45:29.495Z,27.14
2018-06-16T11:47:57.574Z,27.23
2018-06-16T11:50:25.669Z,27.23
2018-06-16T11:52:53.740Z,26.94
2018-06-16T11:55:21.841Z,26.99
2018-06-16T11:57:50.137Z,27.20
2018-06-16T12:00:18.240Z,27.53
2018-06-16T12:02:46.323Z,27.61
2018-06-16T12:05:14.403Z,28.04
2018-06-16T12:07:42.499Z,28.09
2018-06-16T12:10:10.597Z,27.80
2018-06-16T12:12:38.685Z,27.38
2018-06-16T12:15:06.795Z,27.53
2018-06-16T12:17:34.880Z,27.38
2018-06-16T12:20:02.963Z,27.75
2018-06-16T12:22:31.098Z,27.66
2018-06-16T12:24:59.208Z,27.42
2018-06-16T12:27:27.275Z,27.44
2018-06-16T12:29:55.361Z,27.33
2018-06-16T12:32:23.455Z,27.51
2018-06-16T12:34:51.548Z,27.67
2018-06-16T12:37:19.666Z,27.89
2018-06-16T12:39:47.744Z,28.43
2018-06-16T12:42:15.832Z,28.16
2018-06-16T12:44:43.911Z,27.91
2018-06-16T12:47:12.007Z,28.20
2018-06-16T12:49:40.086Z,28.39
2018-06-16T12:52:08.167Z,27.97
2018-06-16T12:54:36.343Z,28.17
2018-06-16T12:57:04.455Z,28.34
2018-06-16T12:59:32.559Z,28.40
2018-06-16T13:02:00.656Z,28.06
2018-06-16T13:04:28.748Z,28.07
2018-06-16T13:06:56.876Z,27.83
2018-06-16T13:09:24.957Z,27.42
2018-06-16T13:11:53.071Z,27.64
2018-06-16T13:14:21.135Z,27.97
2018-06-16T13:16:49.207Z,27.63
2018-06-16T13:19:17.276Z,27.70
2018-06-16T13:21:45.359Z,27.65
2018-06-16T13:24:13.534Z,27.85
2018-06-16T13:26:41.824Z,28.15
2018-06-16T13:29:10.567Z,27.90
2018-06-16T13:31:41.009Z,28.40
2018-06-16T13:34:09.268Z,28.18
2018-06-16T13:36:39.324Z,28.21
2018-06-16T13:39:08.940Z,27.98
2018-06-16T13:41:37.171Z,28.06
2018-06-16T13:44:05.546Z,28.21
2018-06-16T13:46:33.691Z,28.22
2018-06-16T13:49:01.858Z,28.34
2018-06-16T13:51:30.004Z,28.32
2018-06-16T13:53:58.206Z,28.00
2018-06-16T13:56:26.563Z,28.24
2018-06-16T14:07:20.940Z,28.66
2018-06-16T14:09:49.101Z,28.63
2018-06-16T14:12:17.312Z,28.02
2018-06-16T14:14:45.638Z,28.15
2018-06-16T14:17:14.086Z,28.48
2018-06-16T14:19:42.659Z,28.73
2018-06-16T14:22:11.268Z,28.71
2018-06-16T14:24:40.644Z,28.32
2018-06-16T14:27:08.854Z,28.08
2018-06-16T14:29:36.955Z,27.65
2018-06-16T14:32:05.098Z,27.37
2018-06-16T14:34:33.193Z,27.02
2018-06-16T14:37:01.289Z,27.52
2018-06-16T14:39:29.375Z,27.49
2018-06-16T14:41:57.473Z,27.22
2018-06-16T14:44:25.546Z,27.05
2018-06-16T14:46:53.623Z,27.33
2018-06-16T14:49:21.691Z,27.84
2018-06-16T14:51:49.774Z,27.93
2018-06-16T14:54:17.864Z,27.88
2018-06-16T14:56:45.939Z,27.89
2018-06-16T14:59:14.027Z,27.55
2018-06-16T15:01:42.156Z,27.67
2018-06-16T15:04:10.248Z,28.12
2018-06-16T15:06:38.375Z,28.28
2018-06-16T15:09:08.657Z,28.11
2018-06-16T15:11:36.780Z,28.35
2018-06-16T15:14:04.870Z,28.50
2018-06-16T15:16:33.020Z,28.45
2018-06-16T15:19:01.102Z,27.59
2018-06-16T15:21:29.237Z,27.51
2018-06-16T15:23:57.328Z,27.69
2018-06-16T15:26:25.421Z,27.35
2018-06-16T15:28:53.865Z,27.12
2018-06-16T15:31:22.074Z,27.56
2018-06-16T15:33:50.169Z,27.84
2018-06-16T15:36:27.371Z,27.99
2018-06-16T15:38:55.442Z,27.88
2018-06-16T15:41:23.591Z,28.04
2018-06-16T15:43:51.849Z,28.14
2018-06-16T15:46:20.203Z,28.04
2018-06-16T15:48:48.249Z,28.11
2018-06-16T15:51:16.464Z,28.00
2018-06-16T15:53:44.539Z,27.85
2018-06-16T15:56:12.839Z,28.17
2018-06-16T15:58:40.931Z,27.89
2018-06-16T16:01:09.703Z,27.85
2018-06-16T16:07:10.663Z,28.21
2018-06-16T16:09:38.803Z,28.54
2018-06-16T16:12:06.889Z,28.87
2018-06-16T16:14:36.596Z,28.93
2018-06-16T16:17:04.741Z,28.70
2018-06-16T16:19:32.912Z,28.33
2018-06-16T16:22:01.009Z,28.40
2018-06-16T16:24:29.134Z,28.67
2018-06-16T16:33:42.119Z,29.00
2018-06-16T16:36:22.132Z,28.88
2018-06-16T16:38:51.404Z,28.87
2018-06-16T16:41:19.732Z,28.82
2018-06-16T16:43:47.931Z,29.24
2018-06-16T16:46:16.258Z,28.40
2018-06-16T16:48:45.036Z,28.04
2018-06-16T16:51:14.251Z,27.56
2018-06-16T16:53:43.927Z,27.45
2018-06-16T16:58:45.855Z,27.52
2018-06-16T17:01:13.948Z,27.39
2018-06-16T17:03:42.076Z,27.43
2018-06-16T17:06:10.162Z,27.98
2018-06-16T17:08:38.270Z,28.59
2018-06-16T17:11:06.439Z,29.43
2018-06-16T17:13:34.578Z,29.90
2018-06-16T17:16:02.695Z,30.55
2018-06-16T17:18:31.038Z,30.93
2018-06-16T17:20:59.167Z,31.16
2018-06-16T17:23:27.275Z,30.85
2018-06-16T17:25:55.407Z,30.90
2018-06-16T17:28:23.490Z,31.17
2018-06-16T17:30:51.658Z,30.57
2018-06-16T17:33:19.939Z,30.62
2018-06-16T17:35:48.153Z,30.26
2018-06-16T17:38:16.289Z,31.19
2018-06-16T17:40:44.449Z,31.65
2018-06-16T17:43:12.639Z,31.77
2018-06-16T17:45:40.790Z,30.77
2018-06-16T17:48:08.894Z,30.72
2018-06-16T17:50:37.031Z,30.64
2018-06-16T17:53:05.191Z,30.73
2018-06-16T17:55:33.307Z,30.29
2018-06-16T17:58:01.438Z,29.99
2018-06-16T18:00:29.531Z,29.76
2018-06-16T18:02:57.744Z,28.81
2018-06-16T18:05:26.132Z,29.05
2018-06-16T18:07:54.256Z,28.82
2018-06-16T18:10:22.342Z,28.19
2018-06-16T18:12:50.454Z,28.22
2018-06-16T18:15:18.519Z,28.35
2018-06-16T18:17:46.640Z,28.34
2018-06-16T18:20:14.709Z,28.24
2018-06-16T18:22:42.787Z,28.09
2018-06-16T18:25:10.872Z,27.75
2018-06-16T18:27:38.979Z,27.19
2018-06-16T18:30:07.080Z,27.22
2018-06-16T18:32:35.163Z,27.15
2018-06-16T18:35:03.262Z,27.11
2018-06-16T18:37:31.364Z,26.97
2018-06-16T18:39:59.516Z,26.82
2018-06-16T18:42:27.647Z,26.70
2018-06-16T18:44:55.786Z,26.49
2018-06-16T18:47:23.871Z,26.43
2018-06-16T18:49:51.968Z,26.39
2018-06-16T18:52:20.043Z,26.24
2018-06-16T18:54:48.211Z,26.10
2018-06-16T18:57:16.303Z,26.02
2018-06-16T18:59:44.389Z,25.85
2018-06-16T19:02:12.516Z,25.75
2018-06-16T19:04:40.602Z,25.67
2018-06-16T19:07:08.751Z,25.62
2018-06-16T19:09:36.854Z,25.50
2018-06-16T19:12:05.084Z,25.34
2018-06-16T19:14:33.241Z,25.15
2018-06-16T19:17:01.412Z,25.01
2018-06-16T19:19:29.594Z,24.92
2018-06-16T19:21:57.865Z,24.64
2018-06-16T19:24:25.963Z,24.62
2018-06-16T19:26:54.048Z,24.38
2018-06-16T19:29:22.127Z,24.21
2018-06-16T19:31:50.218Z,24.12
2018-06-16T19:34:18.304Z,23.89
2018-06-16T19:36:46.458Z,23.49
2018-06-16T19:39:14.559Z,22.91
2018-06-16T19:41:42.660Z,22.40
2018-06-16T19:44:10.960Z,22.55
2018-06-16T19:46:39.199Z,22.41
2018-06-16T19:49:07.789Z,22.52
2018-06-16T19:51:35.877Z,22.08
2018-06-16T19:54:04.004Z,21.75
2018-06-16T19:56:32.131Z,21.95
2018-06-16T19:59:00.211Z,21.84
2018-06-16T20:01:28.487Z,21.79
2018-06-16T20:03:56.855Z,21.94
2018-06-16T20:06:24.975Z,21.88
2018-06-16T20:08:53.075Z,21.71
2018-06-16T20:11:21.351Z,21.45
2018-06-16T20:13:49.628Z,21.63
2018-06-16T20:16:17.711Z,21.60
2018-06-16T20:18:45.782Z,21.42
2018-06-16T20:21:13.848Z,21.43
2018-06-16T20:23:41.942Z,21.46
2018-06-16T20:26:10.035Z,21.42
2018-06-16T20:28:38.128Z,21.42
2018-06-16T20:31:06.227Z,21.21
2018-06-16T20:33:34.335Z,21.11
2018-06-16T20:36:02.434Z,21.23
2018-06-16T20:38:30.527Z,21.05
2018-06-16T20:40:58.604Z,21.06
2018-06-16T20:43:26.696Z,21.09
2018-06-16T20:45:54.800Z,21.00
2018-06-16T20:48:22.895Z,20.46
2018-06-16T20:50:50.995Z,20.42
2018-06-16T20:53:19.103Z,20.15
2018-06-16T20:55:47.186Z,20.27
2018-06-16T20:58:15.278Z,20.42
2018-06-16T21:00:43.395Z,20.50
2018-06-16T21:03:11.470Z,20.24
2018-06-16T21:05:39.551Z,20.04
2018-06-16T21:08:07.646Z,19.91
2018-06-16T21:10:35.733Z,19.88
2018-06-16T21:13:03.928Z,19.88
2018-06-16T21:15:32.068Z,19.98
2018-06-16T21:18:00.193Z,20.06
2018-06-16T21:20:28.285Z,20.09
2018-06-16T21:22:56.363Z,20.24
2018-06-16T21:25:24.457Z,20.24
2018-06-16T21:27:52.599Z,20.18
2018-06-16T21:30:20.760Z,20.17
2018-06-16T21:32:48.851Z,20.15
2018-06-16T21:35:16.973Z,19.99
2018-06-16T21:37:45.226Z,19.99
2018-06-16T21:40:13.392Z,19.96
2018-06-16T21:42:41.487Z,19.92
2018-06-16T21:45:09.575Z,19.90
2018-06-16T21:47:37.664Z,19.95
2018-06-16T21:50:05.781Z,19.82
2018-06-16T21:52:33.886Z,19.85
2018-06-16T21:55:01.986Z,19.86
2018-06-16T21:57:30.103Z,19.78
2018-06-16T21:59:58.211Z,19.89
2018-06-16T22:02:26.308Z,19.92
2018-06-16T22:04:54.455Z,20.18
2018-06-16T22:07:22.531Z,20.29
2018-06-16T22:09:50.641Z,20.21
2018-06-16T22:12:18.715Z,20.32
2018-06-16T22:14:46.820Z,20.37
2018-06-16T22:17:15.013Z,20.36
2018-06-16T22:19:43.079Z,20.32
2018-06-16T22:22:11.187Z,20.47
2018-06-16T22:24:39.267Z,20.51
2018-06-16T22:27:07.380Z,20.64
2018-06-16T22:29:35.620Z,20.66
2018-06-16T22:32:03.711Z,20.71
2018-06-16T22:34:31.826Z,20.69
2018-06-16T22:36:59.914Z,20.76
2018-06-16T22:39:28.008Z,20.65
2018-06-16T22:41:56.198Z,20.58
2018-06-16T22:44:24.301Z,20.52
2018-06-16T22:46:52.383Z,20.48
2018-06-16T22:49:20.494Z,20.41
2018-06-16T22:51:55.798Z,20.39
2018-06-16T22:54:29.038Z,20.30
2018-06-16T22:56:58.628Z,20.35
2018-06-16T22:59:28.611Z,20.36
2018-06-16T23:02:01.592Z,20.25
2018-06-16T23:04:31.971Z,20.19
2018-06-16T23:07:07.649Z,20.20
2018-06-16T23:09:47.492Z,20.17
2018-06-16T23:25:24.928Z,20.32
2018-06-16T23:27:57.989Z,20.32
2018-06-16T23:30:27.999Z,20.52
2018-06-16T23:33:02.801Z,20.39
2018-06-16T23:35:32.777Z,20.31
2018-06-16T23:38:09.365Z,20.33
2018-06-16T23:40:38.232Z,20.25
2018-06-16T23:43:07.715Z,20.29
2018-06-16T23:45:38.028Z,20.24
2018-06-16T23:48:07.030Z,20.20
2018-06-16T23:50:35.460Z,20.28
2018-06-16T23:53:06.394Z,20.24
2018-06-16T23:55:34.995Z,20.14
2018-06-16T23:58:04.656Z,20.09
